Time;durP1;ratioP1;P1;durP2;ratioP2;P2;SDS_P1;SDS_P2;PMS_P1;PMS_P2;Temp;Humidity;BMP_temperature;BMP_pressure;BME280_temperature;BME280_humidity;BME280_pressure;Samples;Min_cycle;Max_cycle;Signal;HPM_P1;HPM_P2
2022/06/04 00:00:28;;;;;;;7.10;6.40;;;17.00;99.90;;;;;;5036488;28;20288;-36
2022/06/04 00:02:54;;;;;;;7.07;6.43;;;17.10;99.90;;;;;;5052995;28;20176;-35
2022/06/04 00:05:23;;;;;;;8.27;6.87;;;17.00;99.90;;;;;;5053131;28;20191;-35
2022/06/04 00:07:52;;;;;;;7.40;6.80;;;16.90;99.90;;;;;;5036375;28;20185;-36
2022/06/04 00:15:52;;;;;;;7.60;6.90;;;16.90;99.90;;;;;;5052515;28;20293;-36
2022/06/04 00:18:19;;;;;;;8.50;7.70;;;16.90;99.90;;;;;;5070590;28;20223;-36
2022/06/04 00:20:46;;;;;;;8.37;7.57;;;16.80;99.90;;;;;;5052879;28;20181;-35
2022/06/04 00:23:12;;;;;;;7.93;7.20;;;16.90;99.90;;;;;;5036286;28;20192;-36
2022/06/04 00:25:42;;;;;;;9.97;7.17;;;16.90;99.90;;;;;;5052399;28;20196;-36
2022/06/04 00:28:09;;;;;;;9.17;7.50;;;16.80;99.90;;;;;;5052611;28;20231;-35
2022/06/04 00:30:37;;;;;;;7.63;6.93;;;16.80;99.90;;;;;;5035818;28;20209;-35
2022/06/04 00:33:02;;;;;;;7.23;6.50;;;16.70;99.90;;;;;;5035902;28;20184;-36
2022/06/04 00:35:29;;;;;;;7.70;6.30;;;16.80;99.90;;;;;;5052280;28;20220;-35
2022/06/04 00:37:55;;;;;;;8.13;7.27;;;16.80;99.90;;;;;;5036189;28;20177;-36
2022/06/04 00:40:24;;;;;;;6.87;6.27;;;16.70;99.90;;;;;;5035869;28;20207;-36
2022/06/04 00:42:49;;;;;;;7.47;6.77;;;16.70;99.90;;;;;;5035974;28;20169;-36
2022/06/04 00:45:21;;;;;;;7.33;6.63;;;16.60;99.90;;;;;;5035616;28;20181;-36
2022/06/04 00:47:51;;;;;;;9.23;6.80;;;16.50;99.90;;;;;;5073711;28;20181;-36
2022/06/04 00:50:20;;;;;;;7.20;6.50;;;16.50;99.90;;;;;;5056711;28;20197;-36
2022/06/04 00:52:49;;;;;;;7.27;6.37;;;16.50;99.90;;;;;;5039843;28;20226;-36
2022/06/04 00:55:17;;;;;;;11.23;7.60;;;16.50;99.90;;;;;;5039572;28;20208;-36
2022/06/04 00:58:19;;;;;;;7.23;6.53;;;16.50;99.90;;;;;;5039676;28;20181;-35
2022/06/04 01:00:54;;;;;;;7.03;6.40;;;16.50;99.90;;;;;;5056172;28;20184;-35
2022/06/04 01:03:38;;;;;;;7.37;6.67;;;16.50;99.90;;;;;;5056360;28;20177;-36
2022/06/04 01:06:16;;;;;;;7.50;6.77;;;16.50;99.90;;;;;;5056107;28;20203;-37
2022/06/04 01:08:57;;;;;;;8.20;7.20;;;16.50;99.90;;;;;;5039853;28;20232;-36
2022/06/04 01:12:11;;;;;;;7.03;6.37;;;16.50;99.90;;;;;;5039352;28;20641;-35
2022/06/04 01:15:09;;;;;;;7.73;7.03;;;16.50;99.90;;;;;;5055957;28;20205;-35
2022/06/04 01:17:54;;;;;;;7.33;6.63;;;16.50;99.90;;;;;;5050275;28;20196;-35
2022/06/04 01:20:29;;;;;;;8.13;7.10;;;16.40;99.90;;;;;;5055870;28;20204;-35
2022/06/04 01:23:19;;;;;;;8.30;7.50;;;16.30;99.90;;;;;;5055947;28;20177;-35
2022/06/04 01:26:11;;;;;;;8.40;7.53;;;16.30;99.90;;;;;;5055546;28;20217;-35
2022/06/04 01:28:48;;;;;;;8.43;7.53;;;16.20;99.90;;;;;;5039128;28;20578;-35
2022/06/04 01:31:18;;;;;;;7.97;7.27;;;16.20;99.90;;;;;;5039068;28;20185;-35
2022/06/04 01:33:52;;;;;;;7.33;6.63;;;16.20;99.90;;;;;;5038882;28;20173;-37
2022/06/04 01:36:27;;;;;;;7.33;6.63;;;16.20;99.90;;;;;;5073822;28;20248;-36
2022/06/04 01:39:05;;;;;;;8.50;6.93;;;16.20;99.90;;;;;;5039098;28;20199;-35
2022/06/04 01:41:53;;;;;;;8.40;7.43;;;16.30;99.90;;;;;;5038853;28;20181;-35
2022/06/04 01:44:29;;;;;;;7.23;6.53;;;16.30;99.90;;;;;;5038877;28;20181;-35
2022/06/04 01:46:59;;;;;;;8.77;6.90;;;16.30;99.90;;;;;;5038878;28;20231;-35
2022/06/04 01:49:45;;;;;;;7.13;6.47;;;16.30;99.90;;;;;;5055064;28;20764;-35
2022/06/04 01:52:39;;;;;;;7.20;6.40;;;16.20;99.90;;;;;;5038931;28;20269;-36
2022/06/04 01:55:25;;;;;;;8.27;7.33;;;16.20;99.90;;;;;;5054896;28;20296;-36
2022/06/04 01:57:57;;;;;;;7.37;6.70;;;16.10;99.90;;;;;;5054885;28;20276;-35
2022/06/04 02:00:46;;;;;;;9.23;7.13;;;16.10;99.90;;;;;;5038527;28;20208;-36
2022/06/04 02:03:19;;;;;;;9.17;7.10;;;16.10;99.90;;;;;;5055265;28;20174;-36
2022/06/04 02:05:53;;;;;;;8.07;7.27;;;16.00;99.90;;;;;;5055060;28;20660;-35
2022/06/04 02:08:27;;;;;;;7.97;6.67;;;15.90;99.90;;;;;;5073089;28;20191;-36
2022/06/04 02:11:00;;;;;;;9.23;7.60;;;15.80;99.90;;;;;;5072786;28;20264;-35
2022/06/04 02:13:26;;;;;;;7.77;7.10;;;15.80;99.90;;;;;;5055014;28;20319;-37
2022/06/04 02:16:00;;;;;;;7.57;6.87;;;15.80;99.90;;;;;;5054487;28;20205;-35
2022/06/04 02:18:26;;;;;;;9.10;7.70;;;15.80;99.90;;;;;;5054943;28;20191;-36
2022/06/04 02:20:52;;;;;;;7.77;7.07;;;15.80;99.90;;;;;;5054804;28;20185;-35
2022/06/04 02:23:19;;;;;;;8.00;7.20;;;15.80;99.90;;;;;;5054495;28;20305;-35
2022/06/04 02:25:45;;;;;;;8.47;6.73;;;15.80;99.90;;;;;;5054003;28;20185;-36
2022/06/04 02:28:11;;;;;;;7.73;6.97;;;15.80;99.90;;;;;;5054918;28;20233;-35
2022/06/04 02:31:00;;;;;;;10.90;7.67;;;15.90;99.90;;;;;;5037797;28;20205;-35
2022/06/04 02:33:45;;;;;;;8.03;6.70;;;16.00;99.90;;;;;;5054588;28;20177;-37
2022/06/04 02:36:20;;;;;;;8.07;7.30;;;16.10;99.90;;;;;;5037688;28;20693;-35
2022/06/04 02:39:01;;;;;;;7.50;6.80;;;16.10;99.90;;;;;;5072240;28;20207;-36
2022/06/04 02:41:32;;;;;;;8.23;7.40;;;16.00;99.90;;;;;;5037783;28;20177;-35
2022/06/04 02:44:30;;;;;;;8.30;7.50;;;15.90;99.90;;;;;;5054351;28;20201;-35
2022/06/04 02:47:05;;;;;;;8.27;7.47;;;15.80;99.90;;;;;;5010673;28;20215;-35
2022/06/04 02:49:35;;;;;;;7.87;7.07;;;15.80;99.90;;;;;;5054261;28;20605;-35
2022/06/04 02:52:03;;;;;;;7.60;6.90;;;15.80;99.90;;;;;;5037821;28;20173;-35
2022/06/04 02:54:38;;;;;;;7.97;7.23;;;15.70;99.90;;;;;;5053600;28;20185;-35
2022/06/04 02:57:05;;;;;;;8.27;7.43;;;15.60;99.90;;;;;;5037207;28;20263;-37
2022/06/04 02:59:34;;;;;;;8.20;7.40;;;15.60;99.90;;;;;;5037373;28;20225;-36
2022/06/04 03:02:01;;;;;;;7.60;6.80;;;15.60;99.90;;;;;;5054173;28;20258;-35
2022/06/04 03:04:28;;;;;;;7.50;6.80;;;15.60;99.90;;;;;;5071209;28;20161;-35
2022/06/04 03:07:03;;;;;;;8.73;7.30;;;15.60;99.90;;;;;;5037002;28;20181;-36
2022/06/04 03:09:29;;;;;;;7.23;6.50;;;15.50;99.90;;;;;;5036353;28;20672;-35
2022/06/04 03:11:55;;;;;;;7.27;6.60;;;15.50;99.90;;;;;;5053933;28;20193;-35
2022/06/04 03:14:21;;;;;;;7.47;6.77;;;15.50;99.90;;;;;;5036540;28;20201;-36
2022/06/04 03:16:48;;;;;;;7.80;7.03;;;15.50;99.90;;;;;;5071699;28;20181;-35
2022/06/04 03:19:14;;;;;;;9.23;7.23;;;15.50;99.90;;;;;;5036970;28;20224;-35
2022/06/04 03:21:41;;;;;;;7.73;7.03;;;15.40;99.90;;;;;;5036833;28;20190;-36
2022/06/04 03:24:09;;;;;;;8.53;7.23;;;15.40;99.90;;;;;;5053553;28;20177;-35
2022/06/04 03:26:36;;;;;;;7.40;6.67;;;15.40;99.90;;;;;;5071454;28;20173;-35
2022/06/04 03:29:03;;;;;;;8.50;7.70;;;15.40;99.90;;;;;;5036968;28;20197;-35
2022/06/04 03:31:29;;;;;;;9.50;7.70;;;15.40;99.90;;;;;;5053435;28;20190;-36
2022/06/04 03:33:56;;;;;;;8.73;7.93;;;15.30;99.90;;;;;;5036346;28;20181;-35
2022/06/04 03:36:22;;;;;;;7.93;7.23;;;15.40;99.90;;;;;;5036662;28;20216;-35
2022/06/04 03:38:56;;;;;;;8.97;7.83;;;15.40;99.90;;;;;;5036788;28;20607;-35
2022/06/04 03:41:21;;;;;;;8.97;7.80;;;15.50;99.90;;;;;;5037046;28;20194;-35
2022/06/04 03:43:51;;;;;;;9.13;8.17;;;15.50;99.90;;;;;;5053135;28;20236;-37
2022/06/04 03:46:24;;;;;;;8.63;7.70;;;15.50;99.90;;;;;;5036850;28;20265;-36
2022/06/04 03:48:51;;;;;;;8.50;7.47;;;15.60;99.90;;;;;;5036487;28;20197;-36
2022/06/04 03:51:17;;;;;;;7.57;6.77;;;15.60;99.90;;;;;;5053426;28;20629;-36
2022/06/04 03:53:43;;;;;;;10.03;7.10;;;15.70;99.90;;;;;;5036788;28;20208;-37
2022/06/04 03:56:09;;;;;;;8.47;7.57;;;15.80;99.90;;;;;;5036280;28;20239;-36
2022/06/04 03:58:35;;;;;;;6.77;6.20;;;15.90;99.90;;;;;;5036481;28;20185;-36
2022/06/04 04:01:16;;;;;;;8.03;7.23;;;15.90;99.90;;;;;;5036357;28;20173;-36
2022/06/04 04:03:42;;;;;;;7.43;6.60;;;15.90;99.90;;;;;;5036436;28;20254;-36
2022/06/04 04:06:18;;;;;;;9.33;7.50;;;15.90;99.90;;;;;;5070747;28;20185;-36
2022/06/04 04:08:44;;;;;;;9.10;8.27;;;15.80;99.90;;;;;;5052968;28;20196;-36
2022/06/04 04:11:12;;;;;;;8.77;7.90;;;15.60;99.90;;;;;;5052567;28;20284;-36
2022/06/04 04:13:38;;;;;;;8.70;7.80;;;15.50;99.90;;;;;;5035983;28;20189;-36
2022/06/04 04:16:05;;;;;;;10.60;8.87;;;15.50;99.90;;;;;;5036143;28;20291;-36
2022/06/04 04:18:32;;;;;;;10.37;9.10;;;15.50;99.90;;;;;;5036065;28;20301;-35
2022/06/04 04:21:02;;;;;;;10.13;9.10;;;15.50;99.90;;;;;;5052738;28;20181;-36
2022/06/04 04:23:28;;;;;;;11.10;8.77;;;15.40;99.90;;;;;;5036111;28;20173;-35
2022/06/04 04:25:54;;;;;;;9.63;8.70;;;15.50;99.90;;;;;;5035750;28;20177;-35
2022/06/04 04:28:20;;;;;;;10.20;9.23;;;15.60;99.90;;;;;;5070650;28;20241;-35
2022/06/04 04:30:46;;;;;;;12.03;10.93;;;15.60;99.90;;;;;;5035901;28;20227;-35
2022/06/04 04:33:11;;;;;;;11.93;10.87;;;15.70;99.90;;;;;;5036189;28;20231;-36
2022/06/04 04:35:37;;;;;;;11.23;10.13;;;15.70;99.90;;;;;;5035758;28;20225;-36
2022/06/04 04:38:04;;;;;;;11.63;10.53;;;15.80;99.90;;;;;;5052679;28;20188;-35
2022/06/04 04:40:31;;;;;;;11.50;9.80;;;15.90;99.90;;;;;;5035788;28;20213;-36
2022/06/04 04:42:58;;;;;;;10.73;9.67;;;15.90;99.90;;;;;;5052552;28;20642;-35
2022/06/04 04:45:25;;;;;;;11.73;10.63;;;16.00;99.90;;;;;;5052158;28;20278;-36
2022/06/04 04:47:52;;;;;;;10.93;9.90;;;16.10;99.90;;;;;;5035937;28;20245;-35
2022/06/04 04:50:20;;;;;;;10.77;9.77;;;16.20;99.90;;;;;;5052567;28;20204;-36
2022/06/04 04:52:47;;;;;;;10.80;9.70;;;16.20;99.90;;;;;;5035904;28;20238;-35
2022/06/04 04:55:13;;;;;;;11.00;9.83;;;16.20;99.90;;;;;;5035018;28;20743;-35
2022/06/04 04:57:39;;;;;;;10.30;9.23;;;16.20;99.90;;;;;;5052510;28;20248;-35
2022/06/04 05:00:07;;;;;;;9.60;8.70;;;16.30;99.90;;;;;;5052332;28;20312;-35
2022/06/04 05:02:34;;;;;;;11.57;9.63;;;16.30;99.90;;;;;;5035703;28;20184;-36
2022/06/04 05:05:00;;;;;;;10.63;9.53;;;16.40;99.90;;;;;;5052021;28;20188;-35
2022/06/04 05:07:26;;;;;;;10.67;9.60;;;16.50;99.90;;;;;;5052537;28;20185;-36
2022/06/04 05:09:52;;;;;;;12.13;9.70;;;16.50;99.90;;;;;;5069633;28;20201;-36
2022/06/04 05:12:17;;;;;;;10.13;9.10;;;16.60;99.90;;;;;;5054123;28;20265;-36
2022/06/04 05:14:44;;;;;;;9.60;8.57;;;16.60;99.90;;;;;;5036975;28;20215;-37
2022/06/04 05:17:10;;;;;;;9.73;8.73;;;16.70;99.90;;;;;;5043552;28;20181;-37
2022/06/04 05:19:36;;;;;;;10.30;9.30;;;16.80;99.90;;;;;;5061469;28;20211;-36
2022/06/04 05:22:03;;;;;;;9.47;8.53;;;16.80;99.90;;;;;;5060032;28;20181;-36
2022/06/04 05:24:33;;;;;;;12.67;9.07;;;16.90;99.90;;;;;;5040177;28;20177;-37
2022/06/04 05:27:00;;;;;;;9.63;8.73;;;16.90;99.90;;;;;;5043075;28;20184;-36
2022/06/04 05:29:28;;;;;;;9.53;8.37;;;16.70;99.90;;;;;;5043335;28;20224;-36
2022/06/04 05:31:54;;;;;;;9.40;8.50;;;16.70;99.90;;;;;;5043578;28;20184;-36
2022/06/04 05:34:20;;;;;;;8.93;7.27;;;16.80;99.90;;;;;;5071251;28;20177;-36
2022/06/04 05:36:47;;;;;;;7.50;6.90;;;16.80;99.90;;;;;;5073812;28;20213;-36
2022/06/04 05:39:14;;;;;;;7.70;6.97;;;16.90;99.90;;;;;;5056628;28;20232;-35
2022/06/04 05:41:40;;;;;;;7.53;6.87;;;16.90;99.90;;;;;;5056918;28;20177;-35
2022/06/04 05:44:07;;;;;;;7.33;6.63;;;16.90;99.90;;;;;;5073447;28;20177;-36
2022/06/04 05:46:33;;;;;;;7.27;6.57;;;16.90;99.90;;;;;;5059736;28;20177;-38
2022/06/04 05:49:01;;;;;;;9.80;7.27;;;16.90;99.90;;;;;;5056657;28;20312;-41
2022/06/04 05:51:29;;;;;;;11.40;7.13;;;17.00;99.90;;;;;;5038757;28;20235;-41
2022/06/04 05:53:56;;;;;;;12.40;7.77;;;17.00;99.90;;;;;;5038461;28;20189;-37
2022/06/04 05:56:25;;;;;;;12.38;7.65;;;17.00;99.90;;;;;;5055079;28;20221;-39
2022/06/04 05:58:53;;;;;;;11.63;7.20;;;17.00;99.90;;;;;;5055343;28;20204;-41
2022/06/04 06:01:21;;;;;;;13.73;7.37;;;17.00;99.90;;;;;;5055187;28;20177;-40
2022/06/04 06:03:48;;;;;;;10.77;7.77;;;17.10;99.90;;;;;;5082537;28;20177;-39
2022/06/04 06:06:21;;;;;;;11.47;7.97;;;17.10;99.90;;;;;;5059767;28;20181;-42
2022/06/04 06:08:48;;;;;;;12.93;8.23;;;17.10;99.90;;;;;;5056753;28;20244;-39
2022/06/04 06:11:16;;;;;;;11.60;7.60;;;17.20;99.90;;;;;;5053556;28;20178;-40
2022/06/04 06:13:43;;;;;;;8.77;7.50;;;17.20;99.90;;;;;;5034663;28;20235;-38
2022/06/04 06:16:14;;;;;;;9.40;7.32;;;17.20;99.90;;;;;;5053065;28;20268;-39
2022/06/04 06:18:40;;;;;;;9.13;7.17;;;17.30;99.90;;;;;;5038625;28;20204;-39
2022/06/04 06:21:09;;;;;;;9.60;7.53;;;17.30;99.90;;;;;;5073017;28;20660;-39
2022/06/04 06:23:36;;;;;;;8.32;7.50;;;17.30;99.90;;;;;;5036510;28;20189;-39
2022/06/04 06:26:11;;;;;;;8.63;7.72;;;17.40;99.90;;;;;;5039335;28;20177;-39
2022/06/04 06:28:39;;;;;;;10.55;8.10;;;17.40;99.90;;;;;;5056071;28;20177;-38
2022/06/04 06:31:07;;;;;;;10.20;7.57;;;17.50;99.90;;;;;;5072072;28;20214;-39
2022/06/04 06:33:33;;;;;;;11.32;8.20;;;17.50;99.90;;;;;;5055103;28;20193;-39
2022/06/04 06:36:01;;;;;;;12.70;7.78;;;17.40;99.90;;;;;;5036266;28;20205;-39
2022/06/04 06:38:28;;;;;;;10.23;7.55;;;17.40;99.90;;;;;;5039197;28;20173;-40
2022/06/04 06:40:55;;;;;;;9.83;8.27;;;17.30;99.90;;;;;;5039712;28;20185;-39
2022/06/04 06:43:22;;;;;;;10.43;7.63;;;17.20;99.90;;;;;;5057963;28;20694;-39
2022/06/04 06:45:48;;;;;;;9.82;8.57;;;17.10;99.90;;;;;;5072776;28;20180;-41
2022/06/04 06:48:14;;;;;;;10.32;9.02;;;17.10;99.90;;;;;;5056025;28;20205;-39
2022/06/04 06:50:40;;;;;;;10.98;9.88;;;17.20;99.90;;;;;;5058557;28;20201;-39
2022/06/04 06:53:05;;;;;;;10.30;9.20;;;17.30;99.90;;;;;;5041599;28;20169;-38
2022/06/04 06:55:32;;;;;;;9.80;8.70;;;17.30;99.90;;;;;;5038617;28;20239;-44
2022/06/04 06:57:57;;;;;;;9.95;9.05;;;17.40;99.90;;;;;;5038356;28;20184;-38
2022/06/04 07:00:24;;;;;;;10.52;9.65;;;17.40;99.90;;;;;;5073269;28;20193;-39
2022/06/04 07:02:50;;;;;;;10.75;9.75;;;17.40;99.90;;;;;;5042317;28;20182;-39
2022/06/04 07:05:16;;;;;;;10.45;9.45;;;17.50;99.90;;;;;;5053582;28;20315;-36
2022/06/04 07:07:42;;;;;;;10.23;9.23;;;17.60;99.90;;;;;;5045977;28;20197;-36
2022/06/04 07:10:10;;;;;;;10.25;9.23;;;17.70;99.90;;;;;;5035694;28;20207;-36
2022/06/04 07:12:37;;;;;;;10.57;9.48;;;17.80;99.90;;;;;;5056003;28;20181;-36
2022/06/04 07:15:03;;;;;;;12.85;8.77;;;17.90;99.90;;;;;;5050122;28;20197;-36
2022/06/04 07:17:29;;;;;;;10.85;9.95;;;17.90;99.90;;;;;;5060042;28;20188;-39
2022/06/04 07:19:55;;;;;;;10.30;9.23;;;18.00;99.90;;;;;;5063520;28;20189;-38
2022/06/04 07:22:21;;;;;;;10.02;8.98;;;18.00;99.90;;;;;;5059842;28;20176;-37
2022/06/04 07:24:47;;;;;;;9.32;8.38;;;18.10;99.90;;;;;;5035472;28;20177;-37
2022/06/04 07:27:13;;;;;;;9.80;8.95;;;18.10;99.90;;;;;;5036025;28;20166;-36
2022/06/04 07:29:39;;;;;;;11.50;9.50;;;18.20;99.90;;;;;;5038534;28;20193;-38
2022/06/04 07:32:05;;;;;;;10.07;9.18;;;18.30;99.90;;;;;;5056161;28;20177;-37
2022/06/04 07:34:32;;;;;;;11.93;9.43;;;18.30;99.90;;;;;;5051654;28;20272;-38
2022/06/04 07:36:58;;;;;;;10.27;9.35;;;18.40;99.90;;;;;;5043866;28;20174;-37
2022/06/04 07:39:25;;;;;;;10.15;9.05;;;18.50;99.90;;;;;;5054992;28;20216;-37
2022/06/04 07:41:53;;;;;;;11.75;8.95;;;18.60;99.90;;;;;;5050965;28;20180;-39
2022/06/04 07:44:23;;;;;;;10.63;9.25;;;18.60;99.90;;;;;;5034802;28;20291;-37
2022/06/04 07:46:50;;;;;;;9.63;8.70;;;18.60;99.90;;;;;;5055603;28;20195;-39
2022/06/04 07:49:19;;;;;;;11.85;9.02;;;18.70;99.90;;;;;;5049809;28;20252;-36
2022/06/04 07:51:47;;;;;;;10.57;9.50;;;18.80;99.90;;;;;;5043054;28;20178;-38
2022/06/04 07:54:14;;;;;;;11.98;9.55;;;18.80;99.90;;;;;;5053387;28;20181;-38
2022/06/04 07:56:42;;;;;;;10.18;9.10;;;18.90;99.90;;;;;;5070153;28;20266;-38
2022/06/04 07:59:11;;;;;;;11.10;9.38;;;19.00;99.90;;;;;;5055378;28;20193;-37
2022/06/04 08:01:37;;;;;;;9.45;8.32;;;19.00;99.90;;;;;;5045971;28;20169;-36
2022/06/04 08:04:04;;;;;;;10.55;9.40;;;19.00;99.90;;;;;;5041088;28;20185;-37
2022/06/04 08:06:31;;;;;;;11.00;9.40;;;19.10;99.90;;;;;;5060677;28;20192;-37
2022/06/04 08:08:58;;;;;;;10.77;8.38;;;19.20;99.90;;;;;;5045880;28;20199;-36
2022/06/04 08:11:31;;;;;;;10.73;8.23;;;19.40;99.90;;;;;;5044524;28;20181;-37
2022/06/04 08:14:07;;;;;;;9.50;8.27;;;19.70;99.90;;;;;;5043798;28;20181;-36
2022/06/04 08:16:35;;;;;;;9.68;7.68;;;20.00;99.90;;;;;;5062302;28;20197;-38
2022/06/04 08:19:01;;;;;;;7.22;6.63;;;20.20;99.90;;;;;;5067803;28;20189;-38
2022/06/04 08:21:27;;;;;;;7.32;6.47;;;20.40;99.90;;;;;;5046454;28;20713;-37
2022/06/04 08:23:54;;;;;;;7.20;6.45;;;20.60;99.90;;;;;;5036569;28;20178;-38
2022/06/04 08:26:20;;;;;;;8.65;6.40;;;20.60;99.90;;;;;;5031817;28;20189;-36
2022/06/04 08:28:46;;;;;;;7.43;6.70;;;20.60;99.90;;;;;;5048492;28;20193;-37
2022/06/04 08:31:14;;;;;;;6.95;5.78;;;20.80;99.90;;;;;;5051287;28;20177;-37
2022/06/04 08:33:41;;;;;;;7.47;6.70;;;20.80;99.90;;;;;;5060038;28;20260;-37
2022/06/04 08:36:08;;;;;;;7.95;6.50;;;21.00;99.90;;;;;;5036586;28;20248;-37
2022/06/04 08:38:35;;;;;;;6.72;5.95;;;21.20;99.90;;;;;;5078824;28;20169;-38
2022/06/04 08:41:04;;;;;;;8.82;5.60;;;21.30;99.90;;;;;;5054330;28;20200;-39
2022/06/04 08:43:49;;;;;;;6.95;5.97;;;21.30;99.90;;;;;;5056469;28;20196;-38
2022/06/04 08:46:29;;;;;;;7.20;6.03;;;21.10;99.90;;;;;;5051830;28;20212;-37
2022/06/04 08:48:59;;;;;;;7.43;5.95;;;21.20;99.90;;;;;;5033256;28;20204;-37
2022/06/04 08:51:27;;;;;;;7.57;5.88;;;21.40;99.90;;;;;;5033852;28;20212;-38
2022/06/04 08:53:57;;;;;;;6.40;5.80;;;21.50;99.90;;;;;;5035631;28;20173;-39
2022/06/04 08:59:35;;;;;;;6.10;5.50;;;21.80;99.90;;;;;;5015230;28;20228;-41
2022/06/04 09:02:04;;;;;;;6.40;5.63;;;21.80;99.90;;;;;;5052531;28;20209;-39
2022/06/04 09:04:59;;;;;;;5.57;5.07;;;21.80;99.90;;;;;;5035079;28;20256;-39
2022/06/04 09:07:37;;;;;;;7.15;6.25;;;21.80;99.90;;;;;;5052562;28;20181;-42
2022/06/04 09:10:15;;;;;;;6.60;6.00;;;21.90;99.90;;;;;;5040384;28;20203;-39
2022/06/04 09:12:57;;;;;;;6.32;5.72;;;22.20;99.90;;;;;;5072591;28;20187;-40
2022/06/04 09:15:39;;;;;;;7.40;6.65;;;22.40;99.90;;;;;;5070400;28;20212;-41
2022/06/04 09:18:13;;;;;;;6.28;5.68;;;22.50;99.90;;;;;;5074111;28;20226;-40
2022/06/04 09:20:53;;;;;;;5.72;5.22;;;22.90;99.90;;;;;;5058907;28;20193;-39
2022/06/04 09:23:34;;;;;;;5.38;4.85;;;23.20;99.90;;;;;;5042447;28;20205;-41
2022/06/04 09:26:08;;;;;;;6.20;4.90;;;23.50;99.90;;;;;;5061309;28;20181;-40
2022/06/04 09:28:42;;;;;;;7.65;5.50;;;23.60;99.90;;;;;;5066988;28;20181;-40
2022/06/04 09:31:44;;;;;;;6.10;5.55;;;23.60;99.90;;;;;;5052135;28;20176;-39
2022/06/04 09:34:15;;;;;;;5.45;4.95;;;23.30;99.90;;;;;;5006913;28;20726;-41
2022/06/04 09:36:46;;;;;;;5.13;4.60;;;23.10;99.90;;;;;;5065250;28;20216;-40
2022/06/04 09:39:29;;;;;;;5.57;5.07;;;22.90;99.90;;;;;;5064704;28;20200;-40
2022/06/04 09:42:23;;;;;;;5.85;5.00;;;22.80;99.90;;;;;;5045678;28;20205;-41
2022/06/04 09:45:01;;;;;;;5.30;4.90;;;22.70;99.90;;;;;;5053866;28;20271;-40
2022/06/04 09:47:40;;;;;;;5.75;5.25;;;22.60;99.90;;;;;;5058377;28;20223;-39
2022/06/04 09:50:27;;;;;;;6.38;5.82;;;22.40;99.90;;;;;;5061553;28;20284;-39
2022/06/04 09:53:00;;;;;;;6.68;6.03;;;22.20;99.90;;;;;;5061461;28;20180;-41
2022/06/04 09:55:27;;;;;;;8.88;6.28;;;22.10;99.90;;;;;;5058219;28;20216;-39
2022/06/04 09:58:07;;;;;;;6.70;6.00;;;22.00;99.90;;;;;;5071387;28;20173;-41
2022/06/04 10:00:38;;;;;;;5.78;5.15;;;21.90;99.90;;;;;;5051655;28;20240;-41
2022/06/04 10:03:13;;;;;;;6.93;5.30;;;22.00;99.90;;;;;;5063386;28;20191;-39
2022/06/04 10:06:00;;;;;;;6.20;5.60;;;21.90;99.90;;;;;;5073565;28;20176;-39
2022/06/04 10:08:29;;;;;;;5.72;5.18;;;22.00;99.90;;;;;;5065930;28;20185;-43
2022/06/04 10:11:02;;;;;;;6.07;5.47;;;21.90;99.90;;;;;;5067652;28;20267;-44
2022/06/04 10:13:43;;;;;;;6.05;5.45;;;22.00;99.90;;;;;;5053142;28;20193;-43
2022/06/04 10:16:25;;;;;;;5.40;5.00;;;22.00;99.90;;;;;;5050874;28;20232;-38
2022/06/04 10:19:01;;;;;;;5.97;5.22;;;22.00;99.90;;;;;;5066955;28;20208;-39
2022/06/04 10:21:36;;;;;;;5.85;4.15;;;21.90;99.90;;;;;;5052579;28;20181;-41
2022/06/04 10:24:18;;;;;;;4.53;4.13;;;22.00;99.90;;;;;;5052190;28;20176;-39
2022/06/04 10:26:54;;;;;;;4.20;3.80;;;22.00;99.90;;;;;;5057172;28;20188;-42
2022/06/04 10:29:33;;;;;;;4.20;3.80;;;22.00;99.90;;;;;;5058273;28;20211;-39
2022/06/04 10:32:07;;;;;;;4.05;3.65;;;21.90;99.90;;;;;;5021808;28;20220;-38
2022/06/04 10:35:01;;;;;;;4.10;3.67;;;21.90;99.90;;;;;;5037232;28;20185;-39
2022/06/04 10:37:40;;;;;;;3.78;3.45;;;21.90;99.90;;;;;;5054006;28;20271;-40
2022/06/04 10:40:43;;;;;;;4.53;3.78;;;21.90;99.90;;;;;;5044094;28;20220;-41
2022/06/04 10:44:00;;;;;;;4.80;4.10;;;21.80;99.90;;;;;;5052104;28;20195;-42
2022/06/04 10:46:51;;;;;;;4.50;3.90;;;21.90;99.90;;;;;;5003711;28;20283;-45
2022/06/04 10:49:20;;;;;;;3.97;3.60;;;21.90;99.90;;;;;;5069981;28;20270;-40
2022/06/04 10:51:58;;;;;;;4.18;3.72;;;22.00;99.90;;;;;;5045837;28;20178;-39
2022/06/04 10:54:39;;;;;;;3.85;3.33;;;22.20;99.90;;;;;;5065099;28;20184;-39
2022/06/04 10:57:48;;;;;;;4.78;3.70;;;22.30;99.90;;;;;;5051510;28;20208;-40
2022/06/04 11:00:20;;;;;;;5.88;4.47;;;22.40;99.90;;;;;;4989043;28;20200;-41
2022/06/04 11:02:55;;;;;;;4.47;4.07;;;22.50;99.90;;;;;;5062127;28;20189;-40
2022/06/04 11:05:26;;;;;;;5.45;4.78;;;22.60;99.90;;;;;;5046979;28;20205;-39
2022/06/04 11:08:05;;;;;;;6.65;5.30;;;22.60;99.90;;;;;;5042379;28;20204;-41
2022/06/04 11:10:35;;;;;;;6.95;5.47;;;22.70;99.90;;;;;;5050169;28;20201;-40
2022/06/04 11:13:20;;;;;;;5.85;5.35;;;22.60;99.90;;;;;;5077737;28;20188;-41
2022/06/04 11:16:09;;;;;;;6.97;6.40;;;22.60;99.90;;;;;;5056705;28;20193;-40
2022/06/04 11:18:56;;;;;;;6.35;5.75;;;22.60;99.90;;;;;;5049890;28;20232;-39
2022/06/04 11:21:49;;;;;;;6.88;6.28;;;22.50;99.90;;;;;;5050393;28;20174;-42
2022/06/04 11:24:18;;;;;;;6.10;5.50;;;22.60;99.90;;;;;;5050721;28;20181;-40
2022/06/04 11:26:50;;;;;;;6.43;5.78;;;22.60;99.90;;;;;;5053353;28;20185;-43
2022/06/04 11:29:17;;;;;;;5.68;5.18;;;22.70;99.90;;;;;;5069741;28;20199;-43
2022/06/04 11:31:55;;;;;;;6.13;5.63;;;22.90;99.90;;;;;;5072162;28;20191;-40
2022/06/04 11:34:52;;;;;;;8.52;7.57;;;23.30;99.90;;;;;;5054637;28;20188;-39
2022/06/04 11:37:51;;;;;;;7.65;6.90;;;23.30;99.90;;;;;;5061249;28;20181;-39
2022/06/04 11:40:30;;;;;;;8.10;7.10;;;23.30;99.90;;;;;;5047338;28;20212;-42
2022/06/04 11:43:21;;;;;;;10.40;8.13;;;23.30;99.90;;;;;;5091292;28;20168;-42
2022/06/04 11:46:16;;;;;;;8.32;7.63;;;23.30;99.90;;;;;;5034969;28;20235;-37
2022/06/04 11:48:52;;;;;;;7.15;6.60;;;23.30;99.90;;;;;;5036348;28;20201;-39
2022/06/04 11:51:33;;;;;;;7.30;6.60;;;23.30;99.90;;;;;;5036663;28;20185;-39
2022/06/04 11:54:35;;;;;;;7.22;6.53;;;23.50;99.90;;;;;;5051973;28;20177;-37
2022/06/04 11:57:16;;;;;;;8.32;7.35;;;23.80;99.90;;;;;;5049442;28;20281;-37
2022/06/04 12:00:03;;;;;;;7.22;6.53;;;23.70;99.90;;;;;;5038185;28;20228;-39
2022/06/04 12:02:54;;;;;;;7.78;6.35;;;23.80;99.90;;;;;;5056525;28;20268;-37
2022/06/04 12:05:57;;;;;;;7.50;6.72;;;24.10;99.90;;;;;;5072393;28;20227;-37
2022/06/04 12:08:27;;;;;;;6.60;5.85;;;24.20;99.90;;;;;;5025268;28;20199;-38
2022/06/04 12:11:23;;;;;;;6.20;5.68;;;24.30;99.90;;;;;;5042298;28;20190;-38
2022/06/04 12:13:58;;;;;;;7.32;6.63;;;24.50;99.90;;;;;;5052989;28;20181;-39
2022/06/04 12:16:33;;;;;;;7.75;6.50;;;24.80;99.90;;;;;;5060251;28;20213;-36
2022/06/04 12:19:05;;;;;;;7.63;6.43;;;24.50;99.90;;;;;;5064197;28;20215;-42
2022/06/04 12:24:40;;;;;;;5.50;5.00;;;24.70;99.90;;;;;;5057342;28;20177;-37
2022/06/04 12:27:17;;;;;;;6.28;5.60;;;24.60;99.90;;;;;;5052495;28;20186;-38
2022/06/04 12:29:52;;;;;;;6.65;5.40;;;24.90;99.90;;;;;;5038491;28;20291;-39
2022/06/04 12:32:30;;;;;;;5.68;5.28;;;25.10;99.90;;;;;;5042598;28;20184;-38
2022/06/04 12:35:26;;;;;;;7.32;6.07;;;25.50;99.90;;;;;;5042177;28;20181;-39
2022/06/04 12:37:55;;;;;;;6.53;5.97;;;25.80;99.90;;;;;;5056781;28;20182;-37
2022/06/04 12:40:24;;;;;;;6.05;5.47;;;25.60;99.90;;;;;;5043469;28;20254;-38
2022/06/04 12:43:09;;;;;;;6.57;5.97;;;25.60;99.90;;;;;;5053690;28;20173;-39
2022/06/04 12:45:50;;;;;;;5.53;4.68;;;25.30;99.90;;;;;;5069287;28;20189;-38
2022/06/04 12:48:18;;;;;;;4.35;4.05;;;25.60;99.90;;;;;;5073945;28;20181;-37
2022/06/04 12:50:50;;;;;;;4.65;4.22;;;25.80;99.90;;;;;;5056285;28;20185;-40
2022/06/04 12:53:20;;;;;;;5.10;4.70;;;26.10;99.90;;;;;;5034593;28;20173;-41
2022/06/04 12:55:52;;;;;;;5.25;4.80;;;26.50;99.90;;;;;;5029199;28;20288;-39
2022/06/04 12:58:25;;;;;;;4.00;3.70;;;26.80;99.90;;;;;;5047415;28;20173;-38
2022/06/04 13:00:56;;;;;;;6.22;3.40;;;26.70;99.90;;;;;;5038821;28;20659;-38
2022/06/04 13:03:31;;;;;;;4.25;3.50;;;26.90;99.90;;;;;;5039659;28;20179;-37
2022/06/04 13:06:03;;;;;;;4.55;3.80;;;27.30;99.90;;;;;;5056460;28;20172;-38
2022/06/04 13:08:32;;;;;;;4.80;4.40;;;27.30;99.90;;;;;;5062070;28;20187;-40
2022/06/04 13:11:09;;;;;;;4.97;4.63;;;27.50;99.90;;;;;;5046898;28;20204;-38
2022/06/04 13:14:02;;;;;;;4.10;3.67;;;27.70;99.90;;;;;;5055820;28;20181;-38
2022/06/04 13:16:30;;;;;;;4.85;4.43;;;27.30;99.90;;;;;;5035716;28;20198;-38
2022/06/04 13:19:08;;;;;;;4.97;4.47;;;27.60;99.90;;;;;;5035205;28;20255;-38
2022/06/04 13:21:42;;;;;;;5.13;4.63;;;27.90;99.90;;;;;;5048127;28;20177;-37
2022/06/04 13:24:22;;;;;;;4.57;4.18;;;28.40;99.90;;;;;;5038598;28;20209;-40
2022/06/04 13:26:51;;;;;;;4.95;4.30;;;28.40;99.90;;;;;;5055857;28;20192;-40